sensor_id;sensor_type;location;lat;lon;timestamp;P1;durP1;ratioP1;P2;durP2;ratioP2
16766;SDS011;8501;49.926;8.404;2024-03-08T00:01:05;31.33;;;16.13;;
16766;SDS011;8501;49.926;8.404;2024-03-08T00:03:31;30.33;;;15.80;;
16766;SDS011;8501;49.926;8.404;2024-03-08T00:05:57;30.63;;;16.77;;
16766;SDS011;8501;49.926;8.404;2024-03-08T00:08:23;32.00;;;16.60;;
16766;SDS011;8501;49.926;8.404;2024-03-08T00:10:49;29.70;;;15.83;;
16766;SDS011;8501;49.926;8.404;2024-03-08T00:13:15;31.03;;;17.07;;
16766;SDS011;8501;49.926;8.404;2024-03-08T00:15:41;30.37;;;16.77;;
16766;SDS011;8501;49.926;8.404;2024-03-08T00:18:06;28.53;;;16.00;;
16766;SDS011;8501;49.926;8.404;2024-03-08T00:20:32;29.60;;;16.17;;
16766;SDS011;8501;49.926;8.404;2024-03-08T00:22:58;30.57;;;16.87;;
16766;SDS011;8501;49.926;8.404;2024-03-08T00:25:23;31.03;;;16.17;;
16766;SDS011;8501;49.926;8.404;2024-03-08T00:27:49;32.57;;;17.53;;
16766;SDS011;8501;49.926;8.404;2024-03-08T00:30:15;27.03;;;15.70;;
16766;SDS011;8501;49.926;8.404;2024-03-08T00:32:40;30.53;;;15.83;;
16766;SDS011;8501;49.926;8.404;2024-03-08T00:35:06;34.97;;;17.33;;
16766;SDS011;8501;49.926;8.404;2024-03-08T00:37:32;31.30;;;16.07;;
16766;SDS011;8501;49.926;8.404;2024-03-08T00:39:59;29.23;;;15.73;;
16766;SDS011;8501;49.926;8.404;2024-03-08T00:42:25;29.43;;;15.60;;
16766;SDS011;8501;49.926;8.404;2024-03-08T00:44:50;32.57;;;17.63;;
16766;SDS011;8501;49.926;8.404;2024-03-08T00:47:16;29.37;;;15.83;;
16766;SDS011;8501;49.926;8.404;2024-03-08T00:49:41;29.10;;;15.50;;
16766;SDS011;8501;49.926;8.404;2024-03-08T00:52:07;31.17;;;17.10;;
16766;SDS011;8501;49.926;8.404;2024-03-08T00:54:33;35.87;;;17.80;;
16766;SDS011;8501;49.926;8.404;2024-03-08T00:56:59;29.70;;;15.90;;
16766;SDS011;8501;49.926;8.404;2024-03-08T00:59:27;30.80;;;16.10;;
16766;SDS011;8501;49.926;8.404;2024-03-08T01:01:53;31.43;;;17.03;;
16766;SDS011;8501;49.926;8.404;2024-03-08T01:04:19;28.93;;;16.30;;
16766;SDS011;8501;49.926;8.404;2024-03-08T01:06:46;32.93;;;16.70;;
16766;SDS011;8501;49.926;8.404;2024-03-08T01:09:12;30.70;;;15.97;;
16766;SDS011;8501;49.926;8.404;2024-03-08T01:11:38;30.00;;;16.50;;
16766;SDS011;8501;49.926;8.404;2024-03-08T01:14:03;32.60;;;16.50;;
16766;SDS011;8501;49.926;8.404;2024-03-08T01:16:29;30.53;;;16.13;;
16766;SDS011;8501;49.926;8.404;2024-03-08T01:18:55;30.40;;;17.00;;
16766;SDS011;8501;49.926;8.404;2024-03-08T01:21:20;30.30;;;16.50;;
16766;SDS011;8501;49.926;8.404;2024-03-08T01:23:47;27.50;;;15.80;;
16766;SDS011;8501;49.926;8.404;2024-03-08T01:26:12;34.57;;;16.97;;
16766;SDS011;8501;49.926;8.404;2024-03-08T01:28:40;32.43;;;16.67;;
16766;SDS011;8501;49.926;8.404;2024-03-08T01:31:05;31.97;;;16.50;;
16766;SDS011;8501;49.926;8.404;2024-03-08T01:33:31;31.53;;;16.40;;
16766;SDS011;8501;49.926;8.404;2024-03-08T01:35:57;30.33;;;16.47;;
16766;SDS011;8501;49.926;8.404;2024-03-08T01:38:23;31.03;;;16.83;;
16766;SDS011;8501;49.926;8.404;2024-03-08T01:40:49;32.40;;;17.10;;
16766;SDS011;8501;49.926;8.404;2024-03-08T01:45:43;31.10;;;17.17;;
16766;SDS011;8501;49.926;8.404;2024-03-08T01:48:09;29.77;;;16.70;;
16766;SDS011;8501;49.926;8.404;2024-03-08T01:50:35;34.77;;;17.47;;
16766;SDS011;8501;49.926;8.404;2024-03-08T01:53:01;33.23;;;17.63;;
16766;SDS011;8501;49.926;8.404;2024-03-08T01:55:28;33.87;;;17.57;;
16766;SDS011;8501;49.926;8.404;2024-03-08T01:57:53;30.03;;;17.00;;
16766;SDS011;8501;49.926;8.404;2024-03-08T02:00:20;33.07;;;17.30;;
16766;SDS011;8501;49.926;8.404;2024-03-08T02:02:46;36.50;;;17.43;;
16766;SDS011;8501;49.926;8.404;2024-03-08T02:05:12;34.10;;;17.67;;
16766;SDS011;8501;49.926;8.404;2024-03-08T02:07:40;36.27;;;18.43;;
16766;SDS011;8501;49.926;8.404;2024-03-08T02:10:08;35.73;;;18.33;;
16766;SDS011;8501;49.926;8.404;2024-03-08T02:12:34;32.43;;;17.37;;
16766;SDS011;8501;49.926;8.404;2024-03-08T02:15:00;34.80;;;17.73;;
16766;SDS011;8501;49.926;8.404;2024-03-08T02:17:26;33.67;;;18.40;;
16766;SDS011;8501;49.926;8.404;2024-03-08T02:19:51;33.50;;;17.70;;
16766;SDS011;8501;49.926;8.404;2024-03-08T02:22:17;31.13;;;17.40;;
16766;SDS011;8501;49.926;8.404;2024-03-08T02:24:43;32.63;;;17.07;;
16766;SDS011;8501;49.926;8.404;2024-03-08T02:27:08;31.53;;;17.03;;
16766;SDS011;8501;49.926;8.404;2024-03-08T02:29:36;35.07;;;18.33;;
16766;SDS011;8501;49.926;8.404;2024-03-08T02:32:05;35.17;;;19.60;;
16766;SDS011;8501;49.926;8.404;2024-03-08T02:34:31;36.67;;;19.27;;
16766;SDS011;8501;49.926;8.404;2024-03-08T02:36:57;32.57;;;17.27;;
16766;SDS011;8501;49.926;8.404;2024-03-08T02:39:22;38.63;;;17.97;;
16766;SDS011;8501;49.926;8.404;2024-03-08T02:41:47;33.27;;;17.03;;
16766;SDS011;8501;49.926;8.404;2024-03-08T02:44:13;36.33;;;17.80;;
16766;SDS011;8501;49.926;8.404;2024-03-08T02:46:40;32.40;;;17.70;;
16766;SDS011;8501;49.926;8.404;2024-03-08T02:49:05;33.10;;;17.53;;
16766;SDS011;8501;49.926;8.404;2024-03-08T02:51:32;33.73;;;17.20;;
16766;SDS011;8501;49.926;8.404;2024-03-08T02:54:00;32.50;;;16.80;;
16766;SDS011;8501;49.926;8.404;2024-03-08T02:56:25;32.57;;;17.30;;
16766;SDS011;8501;49.926;8.404;2024-03-08T02:58:51;33.60;;;17.23;;
16766;SDS011;8501;49.926;8.404;2024-03-08T03:01:17;35.60;;;17.00;;
16766;SDS011;8501;49.926;8.404;2024-03-08T03:03:45;31.37;;;16.10;;
16766;SDS011;8501;49.926;8.404;2024-03-08T03:06:12;34.17;;;17.30;;
16766;SDS011;8501;49.926;8.404;2024-03-08T03:08:37;32.63;;;17.27;;
16766;SDS011;8501;49.926;8.404;2024-03-08T03:11:03;35.77;;;17.30;;
16766;SDS011;8501;49.926;8.404;2024-03-08T03:13:29;32.03;;;17.03;;
16766;SDS011;8501;49.926;8.404;2024-03-08T03:15:54;35.40;;;17.00;;
16766;SDS011;8501;49.926;8.404;2024-03-08T03:18:22;33.43;;;16.87;;
16766;SDS011;8501;49.926;8.404;2024-03-08T03:20:48;32.53;;;17.00;;
16766;SDS011;8501;49.926;8.404;2024-03-08T03:23:14;32.33;;;16.93;;
16766;SDS011;8501;49.926;8.404;2024-03-08T03:25:45;31.77;;;16.83;;
16766;SDS011;8501;49.926;8.404;2024-03-08T03:28:11;35.20;;;17.93;;
16766;SDS011;8501;49.926;8.404;2024-03-08T03:30:42;31.40;;;17.00;;
16766;SDS011;8501;49.926;8.404;2024-03-08T03:33:11;34.30;;;17.23;;
16766;SDS011;8501;49.926;8.404;2024-03-08T03:35:37;36.37;;;17.73;;
16766;SDS011;8501;49.926;8.404;2024-03-08T03:38:03;33.63;;;16.83;;
16766;SDS011;8501;49.926;8.404;2024-03-08T03:40:32;30.33;;;16.70;;
16766;SDS011;8501;49.926;8.404;2024-03-08T03:42:58;31.87;;;16.60;;
16766;SDS011;8501;49.926;8.404;2024-03-08T03:45:24;30.57;;;17.20;;
16766;SDS011;8501;49.926;8.404;2024-03-08T03:47:50;33.07;;;16.90;;
16766;SDS011;8501;49.926;8.404;2024-03-08T03:50:17;33.80;;;17.73;;
16766;SDS011;8501;49.926;8.404;2024-03-08T03:52:46;35.67;;;17.70;;
16766;SDS011;8501;49.926;8.404;2024-03-08T03:55:12;33.63;;;17.23;;
16766;SDS011;8501;49.926;8.404;2024-03-08T03:57:39;32.77;;;16.50;;
16766;SDS011;8501;49.926;8.404;2024-03-08T04:00:05;34.57;;;17.17;;
16766;SDS011;8501;49.926;8.404;2024-03-08T04:02:34;32.43;;;16.97;;
16766;SDS011;8501;49.926;8.404;2024-03-08T04:05:01;33.97;;;17.00;;
16766;SDS011;8501;49.926;8.404;2024-03-08T04:07:27;35.13;;;17.37;;
16766;SDS011;8501;49.926;8.404;2024-03-08T04:09:53;33.20;;;17.17;;
16766;SDS011;8501;49.926;8.404;2024-03-08T04:12:19;36.83;;;17.77;;
16766;SDS011;8501;49.926;8.404;2024-03-08T04:14:44;35.50;;;17.07;;
16766;SDS011;8501;49.926;8.404;2024-03-08T04:17:10;33.30;;;16.37;;
16766;SDS011;8501;49.926;8.404;2024-03-08T04:19:38;34.37;;;16.97;;
16766;SDS011;8501;49.926;8.404;2024-03-08T04:22:05;34.80;;;17.50;;
16766;SDS011;8501;49.926;8.404;2024-03-08T04:24:32;35.80;;;17.37;;
16766;SDS011;8501;49.926;8.404;2024-03-08T04:26:58;36.07;;;17.30;;
16766;SDS011;8501;49.926;8.404;2024-03-08T04:29:23;38.53;;;17.83;;
16766;SDS011;8501;49.926;8.404;2024-03-08T04:31:49;35.33;;;17.40;;
16766;SDS011;8501;49.926;8.404;2024-03-08T04:34:19;31.53;;;15.90;;
16766;SDS011;8501;49.926;8.404;2024-03-08T04:36:48;36.07;;;17.90;;
16766;SDS011;8501;49.926;8.404;2024-03-08T04:39:13;33.27;;;17.37;;
16766;SDS011;8501;49.926;8.404;2024-03-08T04:41:40;38.40;;;18.57;;
16766;SDS011;8501;49.926;8.404;2024-03-08T04:44:08;33.33;;;17.40;;
16766;SDS011;8501;49.926;8.404;2024-03-08T04:46:36;38.63;;;17.10;;
16766;SDS011;8501;49.926;8.404;2024-03-08T04:49:02;39.43;;;18.53;;
16766;SDS011;8501;49.926;8.404;2024-03-08T04:51:27;37.83;;;18.13;;
16766;SDS011;8501;49.926;8.404;2024-03-08T04:53:53;36.03;;;17.50;;
16766;SDS011;8501;49.926;8.404;2024-03-08T04:56:18;39.50;;;18.00;;
16766;SDS011;8501;49.926;8.404;2024-03-08T04:58:44;37.10;;;18.13;;
16766;SDS011;8501;49.926;8.404;2024-03-08T05:01:11;37.53;;;17.90;;
16766;SDS011;8501;49.926;8.404;2024-03-08T05:03:37;36.90;;;17.33;;
16766;SDS011;8501;49.926;8.404;2024-03-08T05:06:03;33.90;;;17.27;;
16766;SDS011;8501;49.926;8.404;2024-03-08T05:08:29;36.60;;;17.63;;
16766;SDS011;8501;49.926;8.404;2024-03-08T05:10:55;34.83;;;17.80;;
16766;SDS011;8501;49.926;8.404;2024-03-08T05:13:21;37.30;;;18.17;;
16766;SDS011;8501;49.926;8.404;2024-03-08T05:15:48;34.23;;;17.93;;
16766;SDS011;8501;49.926;8.404;2024-03-08T05:18:15;38.03;;;18.53;;
16766;SDS011;8501;49.926;8.404;2024-03-08T05:20:40;37.07;;;18.47;;
16766;SDS011;8501;49.926;8.404;2024-03-08T05:23:06;33.73;;;17.97;;
16766;SDS011;8501;49.926;8.404;2024-03-08T05:25:33;39.77;;;18.80;;
16766;SDS011;8501;49.926;8.404;2024-03-08T05:27:58;36.10;;;18.23;;
16766;SDS011;8501;49.926;8.404;2024-03-08T05:30:24;38.83;;;18.23;;
16766;SDS011;8501;49.926;8.404;2024-03-08T05:32:50;35.70;;;17.70;;
16766;SDS011;8501;49.926;8.404;2024-03-08T05:35:15;36.47;;;18.23;;
16766;SDS011;8501;49.926;8.404;2024-03-08T05:37:41;37.60;;;17.80;;
16766;SDS011;8501;49.926;8.404;2024-03-08T05:40:07;34.10;;;17.20;;
16766;SDS011;8501;49.926;8.404;2024-03-08T05:42:36;37.10;;;18.07;;
16766;SDS011;8501;49.926;8.404;2024-03-08T05:45:02;37.77;;;18.43;;
16766;SDS011;8501;49.926;8.404;2024-03-08T05:47:31;40.63;;;18.60;;
16766;SDS011;8501;49.926;8.404;2024-03-08T05:49:58;37.63;;;18.53;;
16766;SDS011;8501;49.926;8.404;2024-03-08T05:52:24;41.77;;;18.47;;
16766;SDS011;8501;49.926;8.404;2024-03-08T05:54:50;37.43;;;17.57;;
16766;SDS011;8501;49.926;8.404;2024-03-08T05:57:16;38.00;;;18.50;;
16766;SDS011;8501;49.926;8.404;2024-03-08T05:59:42;40.30;;;19.00;;
16766;SDS011;8501;49.926;8.404;2024-03-08T06:02:08;39.60;;;18.63;;
16766;SDS011;8501;49.926;8.404;2024-03-08T06:04:33;38.43;;;18.57;;
16766;SDS011;8501;49.926;8.404;2024-03-08T06:06:59;39.00;;;19.13;;
16766;SDS011;8501;49.926;8.404;2024-03-08T06:09:25;39.53;;;19.13;;
16766;SDS011;8501;49.926;8.404;2024-03-08T06:11:51;36.47;;;18.70;;
16766;SDS011;8501;49.926;8.404;2024-03-08T06:14:18;39.73;;;18.73;;
16766;SDS011;8501;49.926;8.404;2024-03-08T06:16:44;40.33;;;19.00;;
16766;SDS011;8501;49.926;8.404;2024-03-08T06:19:10;37.10;;;18.70;;
16766;SDS011;8501;49.926;8.404;2024-03-08T06:21:37;40.50;;;19.10;;
16766;SDS011;8501;49.926;8.404;2024-03-08T06:24:02;39.00;;;18.53;;
16766;SDS011;8501;49.926;8.404;2024-03-08T06:26:28;40.57;;;18.87;;
16766;SDS011;8501;49.926;8.404;2024-03-08T06:28:54;38.47;;;18.50;;
16766;SDS011;8501;49.926;8.404;2024-03-08T06:31:20;38.53;;;18.97;;
16766;SDS011;8501;49.926;8.404;2024-03-08T06:33:45;37.90;;;18.83;;
16766;SDS011;8501;49.926;8.404;2024-03-08T06:36:11;38.03;;;19.03;;
16766;SDS011;8501;49.926;8.404;2024-03-08T06:38:37;39.00;;;19.10;;
16766;SDS011;8501;49.926;8.404;2024-03-08T06:41:07;39.67;;;19.50;;
16766;SDS011;8501;49.926;8.404;2024-03-08T06:43:40;37.23;;;18.80;;
16766;SDS011;8501;49.926;8.404;2024-03-08T06:46:06;41.97;;;20.00;;
16766;SDS011;8501;49.926;8.404;2024-03-08T06:48:31;41.60;;;18.63;;
16766;SDS011;8501;49.926;8.404;2024-03-08T06:50:57;40.10;;;19.33;;
16766;SDS011;8501;49.926;8.404;2024-03-08T06:53:22;37.53;;;18.83;;
16766;SDS011;8501;49.926;8.404;2024-03-08T06:55:50;40.70;;;20.53;;
16766;SDS011;8501;49.926;8.404;2024-03-08T06:58:15;41.40;;;20.10;;
16766;SDS011;8501;49.926;8.404;2024-03-08T07:00:41;39.00;;;19.23;;
16766;SDS011;8501;49.926;8.404;2024-03-08T07:03:07;41.40;;;19.63;;
16766;SDS011;8501;49.926;8.404;2024-03-08T07:05:37;37.13;;;19.07;;
16766;SDS011;8501;49.926;8.404;2024-03-08T07:08:03;38.93;;;19.93;;
16766;SDS011;8501;49.926;8.404;2024-03-08T07:10:28;37.17;;;18.80;;
16766;SDS011;8501;49.926;8.404;2024-03-08T07:12:54;40.67;;;20.37;;
16766;SDS011;8501;49.926;8.404;2024-03-08T07:15:20;38.23;;;18.67;;
16766;SDS011;8501;49.926;8.404;2024-03-08T07:17:48;39.60;;;19.40;;
16766;SDS011;8501;49.926;8.404;2024-03-08T07:20:14;37.57;;;18.77;;
16766;SDS011;8501;49.926;8.404;2024-03-08T07:22:43;37.83;;;19.07;;
16766;SDS011;8501;49.926;8.404;2024-03-08T07:25:12;42.07;;;20.80;;
16766;SDS011;8501;49.926;8.404;2024-03-08T07:27:47;40.07;;;19.50;;
16766;SDS011;8501;49.926;8.404;2024-03-08T07:30:13;39.40;;;19.40;;
16766;SDS011;8501;49.926;8.404;2024-03-08T07:32:59;37.97;;;19.03;;
16766;SDS011;8501;49.926;8.404;2024-03-08T07:35:27;38.37;;;19.83;;
16766;SDS011;8501;49.926;8.404;2024-03-08T07:37:53;41.43;;;20.70;;
16766;SDS011;8501;49.926;8.404;2024-03-08T07:40:22;39.13;;;19.87;;
16766;SDS011;8501;49.926;8.404;2024-03-08T07:42:48;39.13;;;19.77;;
16766;SDS011;8501;49.926;8.404;2024-03-08T07:45:15;40.37;;;19.50;;
16766;SDS011;8501;49.926;8.404;2024-03-08T07:47:41;44.80;;;21.03;;
16766;SDS011;8501;49.926;8.404;2024-03-08T07:50:07;41.53;;;19.93;;
16766;SDS011;8501;49.926;8.404;2024-03-08T07:52:35;38.03;;;19.73;;
16766;SDS011;8501;49.926;8.404;2024-03-08T07:55:04;37.60;;;19.80;;
16766;SDS011;8501;49.926;8.404;2024-03-08T07:57:30;40.53;;;19.83;;
16766;SDS011;8501;49.926;8.404;2024-03-08T07:59:57;39.67;;;20.27;;
16766;SDS011;8501;49.926;8.404;2024-03-08T08:02:23;39.63;;;20.07;;
16766;SDS011;8501;49.926;8.404;2024-03-08T08:04:48;37.53;;;19.23;;
16766;SDS011;8501;49.926;8.404;2024-03-08T08:07:14;36.67;;;19.33;;
16766;SDS011;8501;49.926;8.404;2024-03-08T08:09:39;37.23;;;18.90;;
16766;SDS011;8501;49.926;8.404;2024-03-08T08:12:07;41.30;;;20.70;;
16766;SDS011;8501;49.926;8.404;2024-03-08T08:14:35;38.83;;;19.53;;
16766;SDS011;8501;49.926;8.404;2024-03-08T08:17:01;41.37;;;19.43;;
16766;SDS011;8501;49.926;8.404;2024-03-08T08:19:29;40.47;;;19.90;;
16766;SDS011;8501;49.926;8.404;2024-03-08T08:21:55;39.17;;;20.33;;
16766;SDS011;8501;49.926;8.404;2024-03-08T08:24:20;36.87;;;18.97;;
16766;SDS011;8501;49.926;8.404;2024-03-08T08:26:47;38.67;;;20.03;;
16766;SDS011;8501;49.926;8.404;2024-03-08T08:29:12;36.47;;;18.97;;
16766;SDS011;8501;49.926;8.404;2024-03-08T08:31:38;37.17;;;18.40;;
16766;SDS011;8501;49.926;8.404;2024-03-08T08:34:03;38.03;;;19.03;;
16766;SDS011;8501;49.926;8.404;2024-03-08T08:36:29;33.40;;;17.90;;
16766;SDS011;8501;49.926;8.404;2024-03-08T08:38:56;40.17;;;20.80;;
16766;SDS011;8501;49.926;8.404;2024-03-08T08:41:23;33.87;;;18.20;;
16766;SDS011;8501;49.926;8.404;2024-03-08T08:43:48;37.13;;;18.43;;
16766;SDS011;8501;49.926;8.404;2024-03-08T08:46:17;34.57;;;18.30;;
16766;SDS011;8501;49.926;8.404;2024-03-08T08:48:43;34.53;;;18.70;;
16766;SDS011;8501;49.926;8.404;2024-03-08T08:51:10;36.97;;;18.97;;
16766;SDS011;8501;49.926;8.404;2024-03-08T08:53:39;35.43;;;18.60;;
16766;SDS011;8501;49.926;8.404;2024-03-08T08:56:11;34.50;;;17.80;;
16766;SDS011;8501;49.926;8.404;2024-03-08T08:58:40;36.80;;;18.87;;
16766;SDS011;8501;49.926;8.404;2024-03-08T09:01:09;35.90;;;18.63;;
16766;SDS011;8501;49.926;8.404;2024-03-08T09:03:35;36.27;;;19.23;;
16766;SDS011;8501;49.926;8.404;2024-03-08T09:06:06;35.97;;;18.57;;
16766;SDS011;8501;49.926;8.404;2024-03-08T09:08:34;34.40;;;18.50;;
16766;SDS011;8501;49.926;8.404;2024-03-08T09:11:00;34.27;;;18.77;;
16766;SDS011;8501;49.926;8.404;2024-03-08T09:13:26;34.93;;;18.13;;
16766;SDS011;8501;49.926;8.404;2024-03-08T09:15:52;30.40;;;16.97;;
16766;SDS011;8501;49.926;8.404;2024-03-08T09:18:19;34.30;;;17.57;;
16766;SDS011;8501;49.926;8.404;2024-03-08T09:20:44;34.00;;;17.60;;
16766;SDS011;8501;49.926;8.404;2024-03-08T09:23:10;31.67;;;17.30;;
16766;SDS011;8501;49.926;8.404;2024-03-08T09:25:36;35.80;;;17.87;;
16766;SDS011;8501;49.926;8.404;2024-03-08T09:28:02;32.03;;;17.60;;
16766;SDS011;8501;49.926;8.404;2024-03-08T09:30:28;32.50;;;17.17;;
16766;SDS011;8501;49.926;8.404;2024-03-08T09:32:54;38.87;;;18.93;;
16766;SDS011;8501;49.926;8.404;2024-03-08T09:35:19;31.30;;;17.10;;
16766;SDS011;8501;49.926;8.404;2024-03-08T09:37:45;34.07;;;17.83;;
16766;SDS011;8501;49.926;8.404;2024-03-08T09:40:12;30.80;;;16.57;;
16766;SDS011;8501;49.926;8.404;2024-03-08T09:42:40;29.67;;;15.87;;
16766;SDS011;8501;49.926;8.404;2024-03-08T09:45:10;31.17;;;16.93;;
16766;SDS011;8501;49.926;8.404;2024-03-08T09:47:38;31.20;;;16.50;;
16766;SDS011;8501;49.926;8.404;2024-03-08T09:50:06;31.20;;;17.37;;
16766;SDS011;8501;49.926;8.404;2024-03-08T09:52:34;31.40;;;16.63;;
16766;SDS011;8501;49.926;8.404;2024-03-08T09:55:11;30.47;;;17.13;;
16766;SDS011;8501;49.926;8.404;2024-03-08T09:57:37;32.40;;;16.60;;
16766;SDS011;8501;49.926;8.404;2024-03-08T10:00:04;27.73;;;15.80;;
16766;SDS011;8501;49.926;8.404;2024-03-08T10:02:46;30.80;;;16.53;;
16766;SDS011;8501;49.926;8.404;2024-03-08T10:05:13;28.97;;;16.10;;
16766;SDS011;8501;49.926;8.404;2024-03-08T10:07:39;30.77;;;16.77;;
16766;SDS011;8501;49.926;8.404;2024-03-08T10:10:05;30.73;;;16.37;;
16766;SDS011;8501;49.926;8.404;2024-03-08T10:12:33;32.20;;;17.50;;
16766;SDS011;8501;49.926;8.404;2024-03-08T10:14:59;30.60;;;16.53;;
16766;SDS011;8501;49.926;8.404;2024-03-08T10:17:26;30.27;;;17.00;;
16766;SDS011;8501;49.926;8.404;2024-03-08T10:19:52;28.40;;;15.93;;
16766;SDS011;8501;49.926;8.404;2024-03-08T10:22:18;33.30;;;17.17;;
16766;SDS011;8501;49.926;8.404;2024-03-08T10:24:45;27.40;;;15.97;;
16766;SDS011;8501;49.926;8.404;2024-03-08T10:27:11;30.57;;;16.73;;
16766;SDS011;8501;49.926;8.404;2024-03-08T10:29:36;32.53;;;16.77;;
16766;SDS011;8501;49.926;8.404;2024-03-08T10:32:03;28.90;;;16.10;;
16766;SDS011;8501;49.926;8.404;2024-03-08T10:34:32;31.83;;;17.17;;
16766;SDS011;8501;49.926;8.404;2024-03-08T10:36:58;31.77;;;17.87;;
16766;SDS011;8501;49.926;8.404;2024-03-08T10:39:34;30.93;;;16.93;;
16766;SDS011;8501;49.926;8.404;2024-03-08T10:42:02;34.50;;;17.67;;
16766;SDS011;8501;49.926;8.404;2024-03-08T10:44:36;28.70;;;16.43;;
16766;SDS011;8501;49.926;8.404;2024-03-08T10:49:48;30.37;;;16.40;;
16766;SDS011;8501;49.926;8.404;2024-03-08T10:52:21;29.80;;;16.33;;
16766;SDS011;8501;49.926;8.404;2024-03-08T10:54:48;34.93;;;17.53;;
16766;SDS011;8501;49.926;8.404;2024-03-08T10:57:17;33.47;;;17.73;;
16766;SDS011;8501;49.926;8.404;2024-03-08T10:59:44;32.07;;;17.27;;
16766;SDS011;8501;49.926;8.404;2024-03-08T11:02:14;31.43;;;16.50;;
16766;SDS011;8501;49.926;8.404;2024-03-08T11:04:45;31.73;;;17.33;;
16766;SDS011;8501;49.926;8.404;2024-03-08T11:07:12;31.60;;;16.93;;
16766;SDS011;8501;49.926;8.404;2024-03-08T11:09:42;29.87;;;16.20;;
16766;SDS011;8501;49.926;8.404;2024-03-08T11:12:20;29.03;;;16.30;;
16766;SDS011;8501;49.926;8.404;2024-03-08T11:14:50;29.37;;;17.10;;
16766;SDS011;8501;49.926;8.404;2024-03-08T11:17:20;30.73;;;17.17;;
16766;SDS011;8501;49.926;8.404;2024-03-08T11:19:50;29.17;;;15.57;;
16766;SDS011;8501;49.926;8.404;2024-03-08T11:22:26;29.03;;;16.23;;
16766;SDS011;8501;49.926;8.404;2024-03-08T11:24:58;29.60;;;17.33;;
16766;SDS011;8501;49.926;8.404;2024-03-08T11:27:30;27.83;;;16.30;;
16766;SDS011;8501;49.926;8.404;2024-03-08T11:29:59;30.67;;;18.30;;
16766;SDS011;8501;49.926;8.404;2024-03-08T11:32:34;28.63;;;16.70;;
16766;SDS011;8501;49.926;8.404;2024-03-08T11:35:01;29.53;;;16.73;;
16766;SDS011;8501;49.926;8.404;2024-03-08T11:37:30;30.97;;;17.07;;
16766;SDS011;8501;49.926;8.404;2024-03-08T11:40:00;29.27;;;16.77;;
16766;SDS011;8501;49.926;8.404;2024-03-08T11:42:29;31.07;;;17.63;;
16766;SDS011;8501;49.926;8.404;2024-03-08T11:44:55;28.37;;;16.90;;
16766;SDS011;8501;49.926;8.404;2024-03-08T11:47:21;28.90;;;16.67;;
16766;SDS011;8501;49.926;8.404;2024-03-08T11:49:47;29.90;;;17.10;;
16766;SDS011;8501;49.926;8.404;2024-03-08T11:52:14;28.03;;;16.97;;
16766;SDS011;8501;49.926;8.404;2024-03-08T11:54:41;29.50;;;16.90;;
16766;SDS011;8501;49.926;8.404;2024-03-08T11:57:08;33.27;;;17.83;;
16766;SDS011;8501;49.926;8.404;2024-03-08T11:59:35;26.60;;;16.80;;
16766;SDS011;8501;49.926;8.404;2024-03-08T12:02:01;30.90;;;17.73;;
16766;SDS011;8501;49.926;8.404;2024-03-08T12:04:28;31.57;;;18.03;;
16766;SDS011;8501;49.926;8.404;2024-03-08T12:06:55;31.23;;;17.43;;
16766;SDS011;8501;49.926;8.404;2024-03-08T12:09:24;29.43;;;16.87;;
16766;SDS011;8501;49.926;8.404;2024-03-08T12:11:51;27.13;;;15.67;;
16766;SDS011;8501;49.926;8.404;2024-03-08T12:14:17;29.07;;;16.33;;
16766;SDS011;8501;49.926;8.404;2024-03-08T12:16:43;28.20;;;16.33;;
16766;SDS011;8501;49.926;8.404;2024-03-08T12:19:09;30.03;;;17.33;;
16766;SDS011;8501;49.926;8.404;2024-03-08T12:21:35;29.17;;;17.00;;
16766;SDS011;8501;49.926;8.404;2024-03-08T12:24:10;28.27;;;16.70;;
16766;SDS011;8501;49.926;8.404;2024-03-08T12:26:37;26.43;;;16.50;;
16766;SDS011;8501;49.926;8.404;2024-03-08T12:29:20;29.37;;;16.20;;
16766;SDS011;8501;49.926;8.404;2024-03-08T12:31:59;29.10;;;16.53;;
16766;SDS011;8501;49.926;8.404;2024-03-08T12:34:30;28.83;;;17.27;;
16766;SDS011;8501;49.926;8.404;2024-03-08T12:36:57;30.03;;;16.93;;
16766;SDS011;8501;49.926;8.404;2024-03-08T12:39:23;26.53;;;16.37;;
16766;SDS011;8501;49.926;8.404;2024-03-08T12:41:52;25.67;;;15.87;;
16766;SDS011;8501;49.926;8.404;2024-03-08T12:44:18;28.73;;;16.00;;
16766;SDS011;8501;49.926;8.404;2024-03-08T12:46:46;27.23;;;16.00;;
16766;SDS011;8501;49.926;8.404;2024-03-08T12:49:13;28.20;;;16.53;;
16766;SDS011;8501;49.926;8.404;2024-03-08T12:51:43;28.77;;;16.47;;
16766;SDS011;8501;49.926;8.404;2024-03-08T12:54:09;27.67;;;16.50;;
16766;SDS011;8501;49.926;8.404;2024-03-08T12:56:35;29.13;;;16.27;;
16766;SDS011;8501;49.926;8.404;2024-03-08T12:59:02;30.47;;;17.03;;
16766;SDS011;8501;49.926;8.404;2024-03-08T13:01:35;31.97;;;17.70;;
16766;SDS011;8501;49.926;8.404;2024-03-08T13:04:04;26.93;;;16.73;;
16766;SDS011;8501;49.926;8.404;2024-03-08T13:06:31;29.43;;;17.00;;
16766;SDS011;8501;49.926;8.404;2024-03-08T13:08:57;30.80;;;17.13;;
16766;SDS011;8501;49.926;8.404;2024-03-08T13:11:24;28.67;;;17.37;;
16766;SDS011;8501;49.926;8.404;2024-03-08T13:13:50;29.80;;;17.10;;
16766;SDS011;8501;49.926;8.404;2024-03-08T13:16:16;27.60;;;16.67;;
16766;SDS011;8501;49.926;8.404;2024-03-08T13:18:43;30.80;;;17.50;;
16766;SDS011;8501;49.926;8.404;2024-03-08T13:21:10;31.73;;;18.07;;
16766;SDS011;8501;49.926;8.404;2024-03-08T13:23:38;30.00;;;16.83;;
16766;SDS011;8501;49.926;8.404;2024-03-08T13:26:08;28.97;;;16.97;;
16766;SDS011;8501;49.926;8.404;2024-03-08T13:28:41;28.07;;;16.47;;
16766;SDS011;8501;49.926;8.404;2024-03-08T13:31:07;28.27;;;16.63;;
16766;SDS011;8501;49.926;8.404;2024-03-08T13:33:35;31.37;;;17.27;;
16766;SDS011;8501;49.926;8.404;2024-03-08T13:36:02;27.93;;;17.23;;
16766;SDS011;8501;49.926;8.404;2024-03-08T13:38:31;30.23;;;17.37;;
16766;SDS011;8501;49.926;8.404;2024-03-08T13:40:58;28.60;;;17.13;;
16766;SDS011;8501;49.926;8.404;2024-03-08T13:43:23;29.10;;;16.90;;
16766;SDS011;8501;49.926;8.404;2024-03-08T13:45:49;29.73;;;17.47;;
16766;SDS011;8501;49.926;8.404;2024-03-08T13:48:15;31.30;;;17.53;;
16766;SDS011;8501;49.926;8.404;2024-03-08T13:50:41;30.77;;;17.33;;
16766;SDS011;8501;49.926;8.404;2024-03-08T13:53:06;28.50;;;17.50;;
16766;SDS011;8501;49.926;8.404;2024-03-08T13:55:35;26.73;;;16.27;;
16766;SDS011;8501;49.926;8.404;2024-03-08T13:58:00;30.77;;;17.27;;
16766;SDS011;8501;49.926;8.404;2024-03-08T14:00:27;27.57;;;16.33;;
16766;SDS011;8501;49.926;8.404;2024-03-08T14:02:58;28.77;;;17.27;;
16766;SDS011;8501;49.926;8.404;2024-03-08T14:05:23;31.37;;;17.70;;
16766;SDS011;8501;49.926;8.404;2024-03-08T14:07:49;32.13;;;18.00;;
16766;SDS011;8501;49.926;8.404;2024-03-08T14:10:15;27.33;;;16.43;;
16766;SDS011;8501;49.926;8.404;2024-03-08T14:12:42;27.37;;;16.87;;
16766;SDS011;8501;49.926;8.404;2024-03-08T14:15:09;29.37;;;16.33;;
16766;SDS011;8501;49.926;8.404;2024-03-08T14:17:36;30.57;;;15.97;;
16766;SDS011;8501;49.926;8.404;2024-03-08T14:20:02;27.67;;;16.40;;
16766;SDS011;8501;49.926;8.404;2024-03-08T14:22:28;25.83;;;15.73;;
16766;SDS011;8501;49.926;8.404;2024-03-08T14:24:56;26.70;;;16.23;;
16766;SDS011;8501;49.926;8.404;2024-03-08T14:27:22;27.20;;;16.93;;
16766;SDS011;8501;49.926;8.404;2024-03-08T14:29:47;27.50;;;16.17;;
16766;SDS011;8501;49.926;8.404;2024-03-08T14:32:13;26.13;;;16.20;;
16766;SDS011;8501;49.926;8.404;2024-03-08T14:34:39;26.97;;;16.43;;
16766;SDS011;8501;49.926;8.404;2024-03-08T14:37:05;26.63;;;16.02;;